Time;durP1;ratioP1;P1;durP2;ratioP2;P2;SDS_P1;SDS_P2;PMS_P1;PMS_P2;Temp;Humidity;BMP_temperature;BMP_pressure;BME280_temperature;BME280_humidity;BME280_pressure;Samples;Min_cycle;Max_cycle;Signal;HPM_P1;HPM_P2
2022/07/12 00:02:05;;;;;;;9.30;4.20;;;;;;;;;;5071561;28;20143;-73
2022/07/12 00:04:31;;;;;;;9.88;3.88;;;;;;;;;;5070294;28;20261;-73
2022/07/12 00:06:57;;;;;;;10.20;4.40;;;;;;;;;;5068272;28;20097;-73
2022/07/12 00:09:23;;;;;;;10.95;5.28;;;;;;;;;;5082946;28;20043;-73
2022/07/12 00:11:49;;;;;;;9.60;3.90;;;;;;;;;;5077163;28;20098;-73
2022/07/12 00:14:15;;;;;;;9.95;4.38;;;;;;;;;;5069866;28;20188;-72
2022/07/12 00:16:41;;;;;;;11.23;5.03;;;;;;;;;;5067988;28;20047;-74
2022/07/12 00:19:08;;;;;;;9.27;4.43;;;;;;;;;;5069718;28;20063;-73
2022/07/12 00:21:34;;;;;;;9.57;4.82;;;;;;;;;;5072191;28;20159;-73
2022/07/12 00:24:01;;;;;;;10.88;5.20;;;;;;;;;;5069828;28;20052;-73
2022/07/12 00:26:27;;;;;;;;;;;;;;;;;;5082474;28;20071;-72
2022/07/12 00:28:53;;;;;;;10.95;4.93;;;;;;;;;;5089619;28;19981;-72
2022/07/12 00:31:20;;;;;;;11.10;5.35;;;;;;;;;;5087455;28;20429;-74
2022/07/12 00:33:46;;;;;;;10.32;5.13;;;;;;;;;;5069204;28;20046;-73
2022/07/12 00:36:12;;;;;;;;;;;;;;;;;;5070032;28;20460;-73
2022/07/12 00:38:38;;;;;;;10.77;5.25;;;;;;;;;;5074142;28;19920;-78
2022/07/12 00:41:04;;;;;;;9.73;4.95;;;;;;;;;;5087397;28;20067;-73
2022/07/12 00:43:30;;;;;;;;;;;;;;;;;;5082520;28;20060;-72
2022/07/12 00:45:57;;;;;;;12.20;5.53;;;;;;;;;;5089167;28;19942;-73
2022/07/12 00:48:23;;;;;;;12.70;5.75;;;;;;;;;;5089705;28;20109;-73
2022/07/12 00:50:49;;;;;;;20.95;5.78;;;;;;;;;;5078887;28;20040;-73
2022/07/12 00:53:18;;;;;;;12.55;6.15;;;;;;;;;;5087625;28;20181;-73
2022/07/12 00:55:44;;;;;;;11.57;6.22;;;;;;;;;;5089168;28;20142;-73
2022/07/12 00:58:10;;;;;;;;;;;;;;;;;;5090329;28;20047;-71
2022/07/12 01:00:36;;;;;;;12.02;6.10;;;;;;;;;;5080640;28;20011;-76
2022/07/12 01:03:03;;;;;;;11.90;5.80;;;;;;;;;;5086126;28;20070;-73
2022/07/12 01:05:29;;;;;;;10.63;5.53;;;;;;;;;;5071374;28;20090;-73
2022/07/12 01:07:56;;;;;;;11.50;5.63;;;;;;;;;;5078586;28;20090;-74
2022/07/12 01:10:23;;;;;;;13.68;6.18;;;;;;;;;;5068852;28;20469;-73
2022/07/12 01:12:50;;;;;;;12.43;6.50;;;;;;;;;;5069549;28;20087;-73
2022/07/12 01:15:16;;;;;;;12.65;6.32;;;;;;;;;;5078461;28;20139;-73
2022/07/12 01:17:44;;;;;;;12.50;6.53;;;;;;;;;;5119479;27;20043;-79
2022/07/12 01:20:11;;;;;;;10.88;6.13;;;;;;;;;;5088980;28;20043;-73
2022/07/12 01:22:40;;;;;;;12.60;6.78;;;;;;;;;;5076152;28;20480;-73
2022/07/12 01:25:07;;;;;;;11.35;6.07;;;;;;;;;;5084583;28;20052;-73
2022/07/12 01:27:33;;;;;;;12.60;6.75;;;;;;;;;;5088877;28;20080;-73
2022/07/12 01:30:01;;;;;;;11.25;6.13;;;;;;;;;;5081313;28;20510;-73
2022/07/12 01:32:29;;;;;;;11.35;5.68;;;;;;;;;;5081023;28;20166;-73
2022/07/12 01:34:58;;;;;;;10.60;5.72;;;;;;;;;;5068145;28;20120;-73
2022/07/12 01:37:25;;;;;;;10.68;5.35;;;;;;;;;;5083497;28;20346;-73
2022/07/12 01:39:52;;;;;;;10.48;4.63;;;;;;;;;;5067009;28;20052;-76
2022/07/12 01:42:19;;;;;;;9.23;4.70;;;;;;;;;;5068137;28;20048;-73
2022/07/12 01:44:45;;;;;;;10.43;4.90;;;;;;;;;;5067670;28;20045;-74
2022/07/12 01:47:12;;;;;;;10.95;5.80;;;;;;;;;;5068274;28;20056;-73
2022/07/12 01:49:38;;;;;;;11.85;6.70;;;;;;;;;;5068774;28;20067;-74
2022/07/12 01:52:04;;;;;;;;;;;;;;;;;;5066720;28;20392;-73
2022/07/12 01:54:30;;;;;;;12.25;5.88;;;;;;;;;;5068307;28;19920;-73
2022/07/12 01:56:56;;;;;;;12.15;6.20;;;;;;;;;;5067616;28;20141;-73
2022/07/12 01:59:22;;;;;;;11.25;5.90;;;;;;;;;;5067830;28;20518;-74
2022/07/12 02:01:49;;;;;;;12.85;7.07;;;;;;;;;;5069101;28;20141;-80
2022/07/12 02:04:19;;;;;;;12.82;6.55;;;;;;;;;;5068057;28;20493;-73
2022/07/12 02:06:45;;;;;;;11.15;5.80;;;;;;;;;;5050143;28;20178;-73
2022/07/12 02:09:12;;;;;;;12.07;5.68;;;;;;;;;;5049344;28;20151;-73
2022/07/12 02:11:38;;;;;;;10.85;5.95;;;;;;;;;;5069010;28;20041;-73
2022/07/12 02:14:04;;;;;;;10.85;6.05;;;;;;;;;;5075320;28;20044;-73
2022/07/12 02:16:31;;;;;;;11.02;6.25;;;;;;;;;;5088318;28;20166;-73
2022/07/12 02:18:57;;;;;;;12.48;6.88;;;;;;;;;;5087644;28;20090;-74
2022/07/12 02:21:23;;;;;;;;;;;;;;;;;;5081073;28;20120;-74
2022/07/12 02:23:49;;;;;;;11.50;6.78;;;;;;;;;;5082360;28;19966;-77
2022/07/12 02:26:15;;;;;;;11.63;6.50;;;;;;;;;;5086279;28;20100;-74
2022/07/12 02:28:42;;;;;;;12.02;6.90;;;;;;;;;;5087977;28;20508;-74
2022/07/12 02:31:08;;;;;;;;;;;;;;;;;;5085883;28;20478;-80
2022/07/12 02:33:34;;;;;;;12.52;7.00;;;;;;;;;;5071713;28;20234;-73
2022/07/12 02:36:00;;;;;;;;;;;;;;;;;;5080805;28;20054;-73
2022/07/12 02:38:26;;;;;;;13.50;7.53;;;;;;;;;;5087911;28;19923;-74
2022/07/12 02:40:55;;;;;;;14.05;7.82;;;;;;;;;;5087901;28;20173;-80
2022/07/12 02:43:22;;;;;;;12.48;7.55;;;;;;;;;;5076366;28;20048;-73
2022/07/12 02:45:48;;;;;;;14.30;7.38;;;;;;;;;;5067851;28;20052;-73
2022/07/12 02:48:14;;;;;;;13.77;8.15;;;;;;;;;;5069440;28;20062;-72
2022/07/12 02:50:41;;;;;;;13.45;7.97;;;;;;;;;;5088619;28;20143;-73
2022/07/12 02:53:07;;;;;;;15.23;7.90;;;;;;;;;;5077784;28;20575;-73
2022/07/12 02:55:33;;;;;;;14.02;8.73;;;;;;;;;;5075014;28;20525;-73
2022/07/12 02:58:00;;;;;;;;;;;;;;;;;;5088270;28;20118;-73
2022/07/12 03:00:26;;;;;;;14.93;8.35;;;;;;;;;;5085714;28;20387;-73
2022/07/12 03:02:52;;;;;;;14.15;8.00;;;;;;;;;;5087031;28;20052;-72
2022/07/12 03:05:18;;;;;;;;;;;;;;;;;;5075522;28;20056;-73
2022/07/12 03:07:44;;;;;;;13.77;8.35;;;;;;;;;;5071554;28;19920;-74
2022/07/12 03:10:11;;;;;;;15.48;8.95;;;;;;;;;;5086073;28;20092;-73
2022/07/12 03:12:37;;;;;;;15.20;8.85;;;;;;;;;;5073482;28;20170;-73
2022/07/12 03:15:04;;;;;;;14.70;8.20;;;;;;;;;;5083362;28;20127;-73
2022/07/12 03:17:30;;;;;;;14.48;8.90;;;;;;;;;;5090850;28;20048;-73
2022/07/12 03:19:56;;;;;;;14.60;8.82;;;;;;;;;;5088512;28;20075;-73
2022/07/12 03:22:22;;;;;;;15.48;9.13;;;;;;;;;;5082021;28;20037;-73
2022/07/12 03:24:48;;;;;;;16.52;9.68;;;;;;;;;;5082376;28;20139;-73
2022/07/12 03:27:14;;;;;;;14.40;9.25;;;;;;;;;;5069691;28;20060;-73
2022/07/12 03:29:40;;;;;;;15.52;10.07;;;;;;;;;;5073114;28;20040;-73
2022/07/12 03:32:06;;;;;;;16.65;10.07;;;;;;;;;;5089063;28;20043;-77
2022/07/12 03:34:33;;;;;;;16.27;9.15;;;;;;;;;;5101272;28;20519;-73
2022/07/12 03:36:59;;;;;;;16.20;10.38;;;;;;;;;;5070105;28;20067;-79
2022/07/12 03:39:25;;;;;;;16.88;10.95;;;;;;;;;;5068211;28;20070;-72
2022/07/12 03:41:51;;;;;;;22.35;11.95;;;;;;;;;;5069519;28;20062;-73
2022/07/12 03:44:17;;;;;;;19.27;11.93;;;;;;;;;;5067171;28;20051;-73
2022/07/12 03:46:43;;;;;;;18.75;11.40;;;;;;;;;;5068484;28;20052;-73
2022/07/12 03:49:09;;;;;;;17.20;11.43;;;;;;;;;;5083723;28;20127;-74
2022/07/12 03:51:35;;;;;;;19.75;12.65;;;;;;;;;;5082292;28;20060;-73
2022/07/12 03:54:02;;;;;;;23.55;13.90;;;;;;;;;;5086738;28;20044;-80
2022/07/12 03:59:13;;;;;;;22.20;13.23;;;;;;;;;;5068466;28;20064;-74
2022/07/12 04:01:39;;;;;;;22.80;14.43;;;;;;;;;;5068741;28;20052;-73
2022/07/12 04:04:05;;;;;;;22.85;14.95;;;;;;;;;;5070523;28;20440;-73
2022/07/12 04:06:31;;;;;;;19.80;12.90;;;;;;;;;;5085761;28;20136;-73
2022/07/12 04:08:57;;;;;;;18.92;11.27;;;;;;;;;;5068527;28;20166;-73
2022/07/12 04:11:23;;;;;;;23.58;10.45;;;;;;;;;;5068594;28;20048;-73
2022/07/12 04:13:49;;;;;;;19.73;11.05;;;;;;;;;;5089003;28;20075;-73
2022/07/12 04:16:15;;;;;;;27.85;12.05;;;;;;;;;;5086671;28;20124;-73
2022/07/12 04:18:41;;;;;;;19.75;10.55;;;;;;;;;;5074636;28;20044;-74
2022/07/12 04:21:07;;;;;;;23.50;11.18;;;;;;;;;;5068065;28;20199;-74
2022/07/12 04:23:33;;;;;;;23.77;11.82;;;;;;;;;;5073752;28;20197;-74
2022/07/12 04:25:59;;;;;;;84.15;12.43;;;;;;;;;;5088515;28;20092;-72
2022/07/12 04:28:25;;;;;;;30.52;11.48;;;;;;;;;;5081272;28;20036;-73
2022/07/12 04:30:51;;;;;;;19.52;11.35;;;;;;;;;;5068016;28;20189;-73
2022/07/12 04:33:17;;;;;;;22.05;10.57;;;;;;;;;;5076204;28;20047;-73
2022/07/12 04:35:44;;;;;;;23.23;11.18;;;;;;;;;;5087062;28;20570;-72
2022/07/12 04:38:10;;;;;;;19.85;11.68;;;;;;;;;;5087917;28;20051;-73
2022/07/12 04:40:37;;;;;;;32.13;12.13;;;;;;;;;;5067619;28;20139;-73
2022/07/12 04:43:03;;;;;;;31.58;12.38;;;;;;;;;;5068333;28;20067;-73
2022/07/12 04:45:29;;;;;;;22.33;12.00;;;;;;;;;;5077297;28;20482;-73
2022/07/12 04:47:55;;;;;;;20.60;11.30;;;;;;;;;;5087960;28;20123;-73
2022/07/12 04:50:21;;;;;;;22.50;12.57;;;;;;;;;;5075804;28;20040;-73
2022/07/12 04:52:47;;;;;;;25.02;12.20;;;;;;;;;;5067487;28;20407;-74
2022/07/12 04:55:13;;;;;;;18.40;9.93;;;;;;;;;;5081239;28;20392;-73
2022/07/12 04:57:39;;;;;;;20.42;10.38;;;;;;;;;;5079792;28;20117;-73
2022/07/12 05:00:06;;;;;;;18.65;9.40;;;;;;;;;;5085041;28;20052;-74
2022/07/12 05:02:33;;;;;;;15.13;8.90;;;;;;;;;;5086598;28;20143;-73
2022/07/12 05:04:59;;;;;;;17.58;9.73;;;;;;;;;;5075611;28;20044;-74
2022/07/12 05:07:25;;;;;;;;;;;;;;;;;;5068025;28;20047;-87
2022/07/12 05:09:51;;;;;;;18.75;10.15;;;;;;;;;;5083022;28;19956;-77
2022/07/12 05:12:18;;;;;;;18.67;11.00;;;;;;;;;;5069226;28;20082;-90
2022/07/12 05:14:44;;;;;;;19.60;10.20;;;;;;;;;;5075995;28;20052;-88
2022/07/12 05:17:10;;;;;;;19.15;11.13;;;;;;;;;;5099790;27;20044;-87
2022/07/12 05:19:37;;;;;;;18.30;10.50;;;;;;;;;;5081313;28;20055;-88
2022/07/12 05:22:03;;;;;;;19.20;11.05;;;;;;;;;;5085104;28;20079;-90
2022/07/12 05:24:29;;;;;;;;;;;;;;;;;;5084646;28;20502;-90
2022/07/12 05:26:57;;;;;;;20.75;11.50;;;;;;;;;;5087229;28;20015;-91
2022/07/12 05:29:23;;;;;;;19.80;11.10;;;;;;;;;;5083133;28;20055;-88
2022/07/12 05:31:49;;;;;;;19.88;10.82;;;;;;;;;;5085716;28;20036;-85
2022/07/12 05:34:16;;;;;;;16.45;9.60;;;;;;;;;;5076354;28;20058;-88
2022/07/12 05:36:42;;;;;;;17.80;9.88;;;;;;;;;;5085858;28;20112;-87
2022/07/12 05:39:08;;;;;;;;;;;;;;;;;;5079568;28;20040;-88
2022/07/12 05:41:34;;;;;;;18.63;10.55;;;;;;;;;;5086081;28;20022;-86
2022/07/12 05:44:00;;;;;;;20.63;11.10;;;;;;;;;;5078744;28;20067;-84
2022/07/12 05:46:26;;;;;;;19.17;10.40;;;;;;;;;;5068571;28;20047;-86
2022/07/12 05:48:54;;;;;;;18.90;10.30;;;;;;;;;;5077242;28;20437;-84
2022/07/12 05:54:04;;;;;;;16.13;9.50;;;;;;;;;;5081415;28;20469;-83
2022/07/12 05:56:30;;;;;;;16.80;9.30;;;;;;;;;;5088961;28;20063;-87
2022/07/12 05:58:57;;;;;;;16.33;9.10;;;;;;;;;;5088894;28;20067;-85
2022/07/12 06:01:23;;;;;;;17.98;9.60;;;;;;;;;;5096347;27;20055;-84
2022/07/12 06:03:49;;;;;;;15.90;8.82;;;;;;;;;;5075803;28;20059;-76
2022/07/12 06:06:15;;;;;;;14.85;8.80;;;;;;;;;;5089002;28;20040;-74
2022/07/12 06:08:41;;;;;;;16.88;8.85;;;;;;;;;;5086204;28;20059;-73
2022/07/12 06:11:07;;;;;;;16.05;9.15;;;;;;;;;;5074233;28;20060;-73
2022/07/12 06:13:33;;;;;;;15.45;9.00;;;;;;;;;;5065754;28;20056;-75
2022/07/12 06:15:59;;;;;;;14.65;8.55;;;;;;;;;;5069343;28;20052;-74
2022/07/12 06:18:26;;;;;;;14.18;8.32;;;;;;;;;;5080509;28;20502;-75
2022/07/12 06:20:52;;;;;;;;;;;;;;;;;;5081938;28;20072;-75
2022/07/12 06:23:18;;;;;;;14.38;7.35;;;;;;;;;;5066209;28;19974;-79
2022/07/12 06:25:45;;;;;;;12.80;7.57;;;;;;;;;;5068756;28;20059;-75
2022/07/12 06:28:12;;;;;;;14.75;8.05;;;;;;;;;;5084810;28;20055;-76
2022/07/12 06:30:38;;;;;;;12.25;7.18;;;;;;;;;;5064956;28;20134;-74
2022/07/12 06:33:04;;;;;;;14.88;8.00;;;;;;;;;;5074905;28;20100;-76
2022/07/12 06:35:30;;;;;;;13.20;7.05;;;;;;;;;;5066349;28;20123;-74
2022/07/12 06:37:57;;;;;;;13.38;7.25;;;;;;;;;;5115332;27;20076;-74
2022/07/12 06:40:23;;;;;;;13.35;7.10;;;;;;;;;;5079495;28;20043;-77
2022/07/12 06:42:50;;;;;;;14.93;7.47;;;;;;;;;;5090107;28;20197;-74
2022/07/12 06:45:16;;;;;;;13.07;7.47;;;;;;;;;;5084444;28;20096;-77
2022/07/12 06:47:42;;;;;;;11.65;6.53;;;;;;;;;;5081127;28;20475;-76
2022/07/12 06:50:08;;;;;;;12.73;6.05;;;;;;;;;;5107393;27;20060;-75
2022/07/12 06:52:34;;;;;;;;;;;;;;;;;;5081976;28;20449;-75
2022/07/12 06:55:00;;;;;;;13.73;6.93;;;;;;;;;;5083955;28;20061;-75
2022/07/12 06:57:27;;;;;;;13.27;6.57;;;;;;;;;;5077749;28;20044;-75
2022/07/12 06:59:53;;;;;;;11.93;5.82;;;;;;;;;;5079354;28;20095;-72
2022/07/12 07:02:19;;;;;;;;;;;;;;;;;;5080952;28;20126;-78
2022/07/12 07:04:45;;;;;;;12.02;6.32;;;;;;;;;;5089093;28;19923;-76
2022/07/12 07:07:12;;;;;;;12.13;5.93;;;;;;;;;;5076899;28;20118;-76
2022/07/12 07:09:38;;;;;;;11.23;5.88;;;;;;;;;;5088520;28;20052;-77
2022/07/12 07:12:04;;;;;;;10.82;5.60;;;;;;;;;;5074095;28;20476;-77
2022/07/12 07:14:30;;;;;;;12.82;5.60;;;;;;;;;;5101556;28;20409;-72
2022/07/12 07:16:56;;;;;;;12.32;6.00;;;;;;;;;;5079898;28;20441;-73
2022/07/12 07:19:25;;;;;;;11.80;6.05;;;;;;;;;;5082481;28;20149;-74
2022/07/12 07:21:52;;;;;;;10.80;5.43;;;;;;;;;;5081142;28;20472;-72
2022/07/12 07:24:18;;;;;;;;;;;;;;;;;;5068142;28;20455;-74
2022/07/12 07:26:44;;;;;;;11.55;5.20;;;;;;;;;;5073850;28;19942;-74
2022/07/12 07:31:54;;;;;;;10.45;5.10;;;;;;;;;;5070196;28;20105;-73
2022/07/12 07:34:22;;;;;;;9.52;4.70;;;;;;;;;;5080538;28;20052;-75
2022/07/12 07:36:48;;;;;;;10.52;4.53;;;;;;;;;;5081359;28;20164;-76
2022/07/12 07:39:14;;;;;;;;;;;;;;;;;;5078975;28;20113;-73
2022/07/12 07:41:40;;;;;;;10.55;4.40;;;;;;;;;;5074304;28;20000;-73
2022/07/12 07:44:06;;;;;;;9.80;4.10;;;;;;;;;;5080455;28;20048;-73
2022/07/12 07:46:32;;;;;;;9.77;4.57;;;;;;;;;;5081701;28;20097;-78
2022/07/12 07:48:58;;;;;;;;;;;;;;;;;;5072035;28;20070;-73
2022/07/12 07:51:24;;;;;;;10.20;4.00;;;;;;;;;;5070971;28;20336;-75
2022/07/12 07:53:50;;;;;;;9.23;3.95;;;;;;;;;;5068749;28;20052;-76
2022/07/12 07:56:17;;;;;;;8.60;3.55;;;;;;;;;;5081684;28;20095;-74
2022/07/12 07:58:43;;;;;;;9.65;4.55;;;;;;;;;;5081880;28;20376;-73
2022/07/12 08:01:09;;;;;;;;;;;;;;;;;;5089560;28;20056;-74
2022/07/12 08:03:35;;;;;;;10.05;4.00;;;;;;;;;;5080519;28;19993;-75
2022/07/12 08:06:01;;;;;;;8.52;3.95;;;;;;;;;;5068902;28;20496;-75
2022/07/12 08:08:30;;;;;;;8.68;4.22;;;;;;;;;;5071187;28;20040;-76
2022/07/12 08:10:57;;;;;;;8.80;3.72;;;;;;;;;;5085696;28;20492;-73
2022/07/12 08:13:23;;;;;;;9.50;4.03;;;;;;;;;;5077505;28;20139;-73
2022/07/12 08:15:50;;;;;;;9.95;3.90;;;;;;;;;;5085880;28;20064;-76
2022/07/12 08:18:16;;;;;;;9.75;4.18;;;;;;;;;;5085057;28;20415;-76
2022/07/12 08:20:42;;;;;;;;;;;;;;;;;;5069134;28;20443;-73
2022/07/12 08:23:08;;;;;;;11.82;4.05;;;;;;;;;;5070269;28;20004;-75
2022/07/12 08:25:34;;;;;;;10.60;4.10;;;;;;;;;;5070570;28;20163;-82
2022/07/12 08:28:00;;;;;;;9.30;4.20;;;;;;;;;;5083916;28;20119;-75
2022/07/12 08:30:26;;;;;;;8.98;3.92;;;;;;;;;;5088287;28;20492;-76
2022/07/12 08:32:54;;;;;;;9.20;3.70;;;;;;;;;;5081759;28;20092;-76
2022/07/12 08:35:21;;;;;;;11.05;4.28;;;;;;;;;;5083083;28;20052;-76
2022/07/12 08:37:47;;;;;;;9.27;4.32;;;;;;;;;;5055195;28;20051;-78
2022/07/12 08:40:13;;;;;;;;;;;;;;;;;;5083096;28;20067;-75
2022/07/12 08:42:43;;;;;;;9.95;4.32;;;;;;;;;;5062603;28;20279;-76
2022/07/12 08:45:10;;;;;;;9.48;4.40;;;;;;;;;;5084181;28;20116;-75
2022/07/12 08:47:37;;;;;;;11.30;3.95;;;;;;;;;;5073762;28;20048;-81
2022/07/12 08:50:13;;;;;;;10.57;4.32;;;;;;;;;;5078677;28;20416;-76
2022/07/12 08:52:41;;;;;;;9.45;3.92;;;;;;;;;;5080616;28;20064;-79
2022/07/12 08:55:17;;;;;;;12.25;4.43;;;;;;;;;;5087676;28;20051;-76
2022/07/12 08:57:44;;;;;;;10.70;4.03;;;;;;;;;;5088455;28;20461;-75
2022/07/12 09:00:10;;;;;;;11.32;4.30;;;;;;;;;;5087912;28;20043;-76
2022/07/12 09:02:45;;;;;;;9.98;4.53;;;;;;;;;;5086291;28;20063;-73
2022/07/12 09:05:12;;;;;;;8.60;3.88;;;;;;;;;;5087542;28;20182;-77
2022/07/12 09:07:38;;;;;;;;;;;;;;;;;;5082293;28;20471;-83
2022/07/12 09:10:08;;;;;;;11.18;4.50;;;;;;;;;;5084990;28;19936;-74
2022/07/12 09:12:34;;;;;;;10.35;4.28;;;;;;;;;;5084158;28;20125;-77
2022/07/12 09:15:21;;;;;;;9.48;4.13;;;;;;;;;;5082702;28;20075;-76
2022/07/12 09:17:55;;;;;;;9.45;4.20;;;;;;;;;;5067577;28;20051;-72
2022/07/12 09:20:21;;;;;;;9.30;3.75;;;;;;;;;;5083560;28;20044;-70
2022/07/12 09:22:54;;;;;;;9.70;4.10;;;;;;;;;;5082781;28;20147;-72
2022/07/12 09:25:21;;;;;;;9.23;4.43;;;;;;;;;;5075894;28;20429;-72
2022/07/12 09:27:54;;;;;;;9.93;4.40;;;;;;;;;;5072784;28;20127;-72
2022/07/12 09:30:24;;;;;;;9.63;4.80;;;;;;;;;;5071779;28;20058;-75
2022/07/12 09:38:21;;;;;;;10.15;4.57;;;;;;;;;;5074900;28;20056;-73
2022/07/12 09:40:47;;;;;;;;;;;;;;;;;;5071460;28;20352;-76
2022/07/12 09:43:14;;;;;;;9.40;4.20;;;;;;;;;;5072981;28;19990;-75
2022/07/12 09:45:43;;;;;;;8.98;4.10;;;;;;;;;;5071703;28;21877;-72
2022/07/12 09:48:11;;;;;;;10.50;4.55;;;;;;;;;;5071943;28;20075;-76
2022/07/12 09:50:38;;;;;;;10.13;4.63;;;;;;;;;;5081670;28;20157;-75
2022/07/12 09:53:04;;;;;;;9.65;4.90;;;;;;;;;;5079032;28;20124;-75
2022/07/12 09:55:30;;;;;;;10.25;5.40;;;;;;;;;;5088544;28;20455;-75
2022/07/12 09:57:57;;;;;;;10.18;5.10;;;;;;;;;;5081539;28;20066;-77
2022/07/12 10:00:23;;;;;;;10.90;4.32;;;;;;;;;;5068801;28;20048;-76
2022/07/12 10:02:50;;;;;;;9.18;4.35;;;;;;;;;;5078440;28;20253;-75
2022/07/12 10:05:17;;;;;;;9.48;4.47;;;;;;;;;;5083245;28;20491;-74
2022/07/12 10:07:45;;;;;;;10.70;4.68;;;;;;;;;;5080214;28;20490;-81
2022/07/12 10:10:11;;;;;;;11.73;3.85;;;;;;;;;;5064538;28;20500;-67
2022/07/12 10:12:37;;;;;;;9.32;4.50;;;;;;;;;;5072187;28;20055;-71
2022/07/12 10:15:05;;;;;;;9.10;4.22;;;;;;;;;;5075747;28;20573;-73
2022/07/12 10:17:33;;;;;;;9.93;4.28;;;;;;;;;;5070231;28;20449;-75
2022/07/12 10:20:31;;;;;;;8.23;3.25;;;;;;;;;;5074332;28;20162;-75
2022/07/12 10:23:16;;;;;;;8.27;3.70;;;;;;;;;;5055055;28;20515;-75
2022/07/12 10:25:42;;;;;;;9.18;3.55;;;;;;;;;;5068845;28;20068;-72
2022/07/12 10:28:08;;;;;;;9.75;3.60;;;;;;;;;;5065826;28;20052;-72
2022/07/12 10:30:45;;;;;;;8.38;3.15;;;;;;;;;;5072636;28;20514;-68
2022/07/12 10:33:11;;;;;;;;;;;;;;;;;;5081026;28;20055;-70
2022/07/12 10:35:37;;;;;;;8.02;3.35;;;;;;;;;;5071719;28;19920;-72
2022/07/12 10:38:12;;;;;;;9.20;3.20;;;;;;;;;;5070228;28;20048;-74
2022/07/12 10:40:39;;;;;;;7.07;2.92;;;;;;;;;;5071150;28;20456;-74
2022/07/12 10:43:05;;;;;;;6.63;2.53;;;;;;;;;;5067715;28;20578;-72
2022/07/12 10:45:32;;;;;;;6.68;2.58;;;;;;;;;;5067938;28;20044;-72
2022/07/12 10:47:59;;;;;;;6.35;2.10;;;;;;;;;;5076630;28;20039;-72
2022/07/12 10:50:45;;;;;;;5.20;2.15;;;;;;;;;;5080910;28;20050;-74
2022/07/12 10:53:26;;;;;;;5.82;2.10;;;;;;;;;;5083320;28;20145;-72
2022/07/12 10:56:05;;;;;;;8.45;2.42;;;;;;;;;;5084130;28;20451;-72
2022/07/12 10:58:32;;;;;;;6.75;2.45;;;;;;;;;;5080067;28;20104;-73
2022/07/12 11:00:59;;;;;;;7.55;2.63;;;;;;;;;;5083719;28;20200;-70
2022/07/12 11:03:31;;;;;;;9.75;2.00;;;;;;;;;;5085463;28;20048;-68
2022/07/12 11:06:03;;;;;;;8.65;2.60;;;;;;;;;;5088035;28;20066;-71
2022/07/12 11:08:30;;;;;;;6.95;2.30;;;;;;;;;;5084137;28;20357;-69
2022/07/12 11:10:59;;;;;;;9.27;2.30;;;;;;;;;;5083332;28;20033;-72
2022/07/12 11:13:26;;;;;;;7.07;2.63;;;;;;;;;;5075437;28;20080;-69
2022/07/12 11:16:01;;;;;;;6.20;2.47;;;;;;;;;;5068054;28;20500;-73
2022/07/12 11:18:28;;;;;;;5.15;2.30;;;;;;;;;;5071706;28;20142;-73
2022/07/12 11:20:58;;;;;;;6.22;2.45;;;;;;;;;;5076212;28;20043;-80
2022/07/12 11:23:28;;;;;;;6.97;2.58;;;;;;;;;;5070604;28;20061;-72
2022/07/12 11:25:57;;;;;;;9.23;2.58;;;;;;;;;;5083242;28;20460;-74
2022/07/12 11:28:31;;;;;;;7.40;2.30;;;;;;;;;;5084829;28;20357;-77
2022/07/12 11:31:13;;;;;;;4.47;2.10;;;;;;;;;;5069786;28;20048;-79
2022/07/12 11:33:40;;;;;;;7.95;2.15;;;;;;;;;;5075213;28;20122;-70
2022/07/12 11:36:07;;;;;;;6.90;2.40;;;;;;;;;;5084516;28;20128;-74
2022/07/12 11:38:35;;;;;;;9.15;2.60;;;;;;;;;;5070780;28;20071;-74
2022/07/12 11:41:02;;;;;;;6.03;2.40;;;;;;;;;;5079659;28;20134;-77
2022/07/12 11:43:29;;;;;;;6.28;2.53;;;;;;;;;;5088487;28;20050;-73
2022/07/12 11:45:56;;;;;;;8.82;3.15;;;;;;;;;;5072684;28;20047;-72
2022/07/12 11:48:22;;;;;;;7.82;2.70;;;;;;;;;;5068723;28;20117;-75
2022/07/12 11:50:49;;;;;;;5.70;2.40;;;;;;;;;;5077374;28;20449;-75
2022/07/12 11:53:16;;;;;;;5.75;2.20;;;;;;;;;;5084670;28;20055;-78
2022/07/12 11:55:44;;;;;;;5.15;1.92;;;;;;;;;;5073617;28;20185;-76
2022/07/12 11:58:10;;;;;;;6.38;2.00;;;;;;;;;;5069786;28;20071;-74
2022/07/12 12:00:36;;;;;;;6.80;2.20;;;;;;;;;;5081022;28;20121;-76
2022/07/12 12:03:02;;;;;;;6.68;2.00;;;;;;;;;;5086350;28;20049;-79
2022/07/12 12:05:29;;;;;;;4.90;1.90;;;;;;;;;;5082345;28;20124;-70
2022/07/12 12:07:55;;;;;;;4.70;1.95;;;;;;;;;;5071263;28;20353;-81
2022/07/12 12:10:21;;;;;;;4.65;2.10;;;;;;;;;;5088753;28;20104;-74
2022/07/12 12:12:48;;;;;;;5.65;2.13;;;;;;;;;;5087808;28;20062;-79
2022/07/12 12:15:18;;;;;;;4.78;1.70;;;;;;;;;;5083558;28;20040;-75
2022/07/12 12:17:52;;;;;;;7.28;2.35;;;;;;;;;;5072434;28;20054;-68
2022/07/12 12:20:26;;;;;;;6.95;2.25;;;;;;;;;;5086219;28;20444;-70
2022/07/12 12:22:53;;;;;;;5.25;2.15;;;;;;;;;;5070579;28;20083;-72
2022/07/12 12:25:20;;;;;;;4.78;1.92;;;;;;;;;;5078976;28;20063;-74
2022/07/12 12:27:50;;;;;;;5.75;2.22;;;;;;;;;;5070900;28;20127;-77
2022/07/12 12:30:17;;;;;;;5.35;2.10;;;;;;;;;;5084481;28;20076;-70
2022/07/12 12:32:47;;;;;;;6.38;2.00;;;;;;;;;;5074041;28;20123;-69
2022/07/12 12:35:14;;;;;;;5.90;1.85;;;;;;;;;;5076227;28;20044;-71
2022/07/12 12:37:41;;;;;;;6.13;2.10;;;;;;;;;;5078135;28;20040;-69
2022/07/12 12:40:07;;;;;;;5.90;2.63;;;;;;;;;;5082231;28;20135;-68
2022/07/12 12:42:34;;;;;;;8.00;2.40;;;;;;;;;;5076609;28;20354;-70
2022/07/12 12:45:00;;;;;;;7.97;2.70;;;;;;;;;;5080546;28;20087;-71
2022/07/12 12:47:32;;;;;;;6.30;2.30;;;;;;;;;;5068934;28;20044;-71
2022/07/12 12:50:01;;;;;;;6.10;2.08;;;;;;;;;;5076666;28;20124;-74
2022/07/12 12:52:28;;;;;;;7.78;2.40;;;;;;;;;;5070967;28;20040;-71
2022/07/12 12:54:55;;;;;;;7.35;2.13;;;;;;;;;;5084235;28;20036;-70
2022/07/12 12:57:21;;;;;;;6.15;2.20;;;;;;;;;;5078915;28;20090;-82
2022/07/12 12:59:47;;;;;;;6.32;2.40;;;;;;;;;;5084719;28;20078;-70
2022/07/12 13:02:13;;;;;;;6.72;2.80;;;;;;;;;;5075272;28;20055;-73
2022/07/12 13:04:39;;;;;;;9.73;3.10;;;;;;;;;;5072198;28;20044;-70
2022/07/12 13:07:06;;;;;;;8.05;2.90;;;;;;;;;;5070155;28;20044;-72
2022/07/12 13:09:32;;;;;;;9.65;3.30;;;;;;;;;;5070720;28;20048;-67
2022/07/12 13:11:59;;;;;;;8.93;3.10;;;;;;;;;;5082591;28;20082;-72
2022/07/12 13:14:26;;;;;;;8.63;3.05;;;;;;;;;;5075053;28;20349;-72
2022/07/12 13:16:52;;;;;;;7.90;3.00;;;;;;;;;;5086215;28;20051;-73
2022/07/12 13:19:18;;;;;;;9.93;3.10;;;;;;;;;;5074670;28;20488;-69
2022/07/12 13:21:45;;;;;;;9.13;3.33;;;;;;;;;;5080802;28;20133;-72
2022/07/12 13:24:11;;;;;;;7.70;2.70;;;;;;;;;;5109744;27;20039;-72
2022/07/12 13:26:37;;;;;;;7.25;2.80;;;;;;;;;;5082708;28;20074;-78
2022/07/12 13:29:03;;;;;;;9.32;3.28;;;;;;;;;;5065612;28;20119;-69
2022/07/12 13:31:29;;;;;;;8.25;2.88;;;;;;;;;;5068034;28;20456;-70
2022/07/12 13:33:55;;;;;;;7.15;2.58;;;;;;;;;;5075800;28;20084;-71
2022/07/12 13:36:22;;;;;;;9.23;2.75;;;;;;;;;;5069941;28;20126;-73
2022/07/12 13:38:48;;;;;;;6.38;2.20;;;;;;;;;;5078136;28;20101;-80
2022/07/12 13:41:14;;;;;;;4.78;2.00;;;;;;;;;;5071456;28;20062;-72
2022/07/12 13:43:40;;;;;;;6.85;2.30;;;;;;;;;;5077757;28;20119;-69
2022/07/12 13:46:06;;;;;;;4.97;1.98;;;;;;;;;;5067761;28;20115;-73
2022/07/12 13:48:33;;;;;;;8.20;1.90;;;;;;;;;;5083584;28;20063;-73
2022/07/12 13:50:59;;;;;;;4.25;1.90;;;;;;;;;;5079275;28;20120;-72
2022/07/12 13:53:25;;;;;;;3.33;1.70;;;;;;;;;;5066087;28;20060;-75
2022/07/12 13:55:51;;;;;;;4.75;1.95;;;;;;;;;;5051225;28;20050;-69
2022/07/12 13:58:18;;;;;;;8.07;2.10;;;;;;;;;;5078485;28;20046;-74
2022/07/12 14:00:44;;;;;;;7.47;2.50;;;;;;;;;;5054605;28;20048;-67
2022/07/12 14:03:10;;;;;;;5.45;1.90;;;;;;;;;;5068195;28;20171;-72
2022/07/12 14:05:37;;;;;;;6.40;2.47;;;;;;;;;;5073796;28;20045;-72
2022/07/12 14:08:03;;;;;;;5.53;2.28;;;;;;;;;;5081202;28;20452;-70
2022/07/12 14:10:29;;;;;;;8.32;2.78;;;;;;;;;;5068110;28;20037;-71
2022/07/12 14:12:55;;;;;;;8.23;2.63;;;;;;;;;;5066458;28;20356;-72
2022/07/12 14:15:42;;;;;;;9.38;3.10;;;;;;;;;;5060758;28;20121;-73
2022/07/12 14:18:08;;;;;;;6.40;2.50;;;;;;;;;;5074650;28;20044;-70
2022/07/12 14:20:36;;;;;;;11.15;3.03;;;;;;;;;;5070737;28;21967;-71
2022/07/12 14:23:02;;;;;;;7.30;2.67;;;;;;;;;;5078662;28;20451;-71
2022/07/12 14:25:28;;;;;;;8.70;2.63;;;;;;;;;;5066667;28;20051;-73
2022/07/12 14:27:54;;;;;;;7.43;2.55;;;;;;;;;;5070786;28;20060;-75
2022/07/12 14:30:21;;;;;;;6.55;2.63;;;;;;;;;;5060136;28;20049;-77
2022/07/12 14:32:47;;;;;;;8.50;2.65;;;;;;;;;;5081964;28;20067;-73
2022/07/12 14:35:14;;;;;;;6.75;2.63;;;;;;;;;;5079307;28;20041;-72
2022/07/12 14:37:40;;;;;;;11.15;2.92;;;;;;;;;;5070014;28;20060;-71
2022/07/12 14:40:07;;;;;;;7.97;2.60;;;;;;;;;;5076972;28;20062;-77
2022/07/12 14:42:33;;;;;;;8.98;2.45;;;;;;;;;;5073150;28;20075;-72
2022/07/12 14:45:00;;;;;;;9.07;3.15;;;;;;;;;;5064888;28;20129;-70
2022/07/12 14:47:26;;;;;;;9.48;3.00;;;;;;;;;;5065627;28;20048;-73
2022/07/12 14:49:56;;;;;;;8.10;2.92;;;;;;;;;;5063975;28;20185;-72
2022/07/12 14:52:22;;;;;;;7.82;3.17;;;;;;;;;;5069315;28;20114;-73
2022/07/12 14:54:50;;;;;;;7.28;2.90;;;;;;;;;;5076969;28;20119;-71
2022/07/12 14:57:17;;;;;;;8.75;2.80;;;;;;;;;;5081217;28;20068;-72